createdAt,value
2019-05-23T00:02:02.285Z,96.90
2019-05-23T00:06:27.693Z,97.20
2019-05-23T00:10:55.860Z,97.50
2019-05-23T00:15:23.963Z,97.60
2019-05-23T00:19:29.716Z,97.00
2019-05-23T00:23:34.960Z,96.50
2019-05-23T00:27:43.001Z,97.10
2019-05-23T00:31:56.177Z,96.90
2019-05-23T00:36:03.592Z,96.60
2019-05-23T00:40:10.634Z,96.50
2019-05-23T00:44:16.442Z,96.10
2019-05-23T00:48:22.072Z,95.90
2019-05-23T00:52:27.369Z,96.30
2019-05-23T00:56:33.379Z,96.30
2019-05-23T01:00:39.661Z,96.40
2019-05-23T01:04:44.747Z,96.60
2019-05-23T01:08:51.779Z,96.60
2019-05-23T01:12:58.204Z,97.10
2019-05-23T01:17:05.917Z,97.20
2019-05-23T01:21:29.823Z,97.20
2019-05-23T01:25:37.225Z,97.60
2019-05-23T01:29:49.587Z,97.90
2019-05-23T01:33:54.620Z,97.90
2019-05-23T01:38:04.008Z,98.20
2019-05-23T01:42:07.861Z,98.40
2019-05-23T01:46:12.992Z,97.80
2019-05-23T01:50:20.755Z,96.90
2019-05-23T01:54:25.941Z,96.20
2019-05-23T01:58:32.002Z,95.90
2019-05-23T02:02:37.669Z,95.80
2019-05-23T02:06:42.939Z,95.40
2019-05-23T02:10:48.828Z,95.50
2019-05-23T02:14:54.997Z,95.30
2019-05-23T02:19:00.792Z,95.20
2019-05-23T02:23:06.302Z,95.20
2019-05-23T02:27:12.016Z,95.20
2019-05-23T02:31:20.796Z,95.20
2019-05-23T02:35:25.791Z,95.10
2019-05-23T02:39:48.452Z,95.00
2019-05-23T02:43:58.788Z,95.00
2019-05-23T02:48:08.440Z,94.90
2019-05-23T02:52:37.033Z,94.80
2019-05-23T02:56:43.431Z,94.90
2019-05-23T03:01:03.310Z,95.00
2019-05-23T03:05:12.045Z,95.00
2019-05-23T03:09:19.935Z,94.80
2019-05-23T03:13:28.181Z,94.80
2019-05-23T03:17:35.507Z,94.80
2019-05-23T03:21:41.874Z,94.80
2019-05-23T03:26:25.149Z,94.90
2019-05-23T03:30:32.180Z,95.00
2019-05-23T03:34:39.473Z,94.90
2019-05-23T03:38:44.969Z,95.30
2019-05-23T03:42:51.813Z,94.80
2019-05-23T03:46:57.534Z,94.60
2019-05-23T03:51:03.342Z,94.60
2019-05-23T03:55:09.136Z,94.60
2019-05-23T03:59:15.832Z,94.50
2019-05-23T04:03:22.415Z,94.80
2019-05-23T04:07:28.272Z,94.50
2019-05-23T04:11:34.047Z,94.30
2019-05-23T04:15:39.236Z,94.40
2019-05-23T04:19:44.576Z,94.50
2019-05-23T04:23:49.324Z,94.50
2019-05-23T04:27:55.239Z,94.50
2019-05-23T04:32:07.715Z,94.60
2019-05-23T04:36:06.801Z,94.80
2019-05-23T04:40:12.090Z,94.90
2019-05-23T04:44:17.660Z,94.80
2019-05-23T04:48:22.797Z,95.40
2019-05-23T04:52:28.546Z,95.50
2019-05-23T04:56:35.817Z,95.70
2019-05-23T05:00:42.115Z,96.30
2019-05-23T05:04:46.961Z,96.60
2019-05-23T05:08:54.253Z,96.20
2019-05-23T05:12:59.128Z,95.80
2019-05-23T05:17:05.027Z,95.50
2019-05-23T05:21:09.946Z,95.50
2019-05-23T05:25:15.921Z,95.60
2019-05-23T05:29:21.037Z,95.50
2019-05-23T05:33:26.239Z,95.30
2019-05-23T05:37:32.301Z,95.10
2019-05-23T05:41:37.699Z,94.70
2019-05-23T05:45:43.786Z,93.80
2019-05-23T05:49:48.932Z,93.50
2019-05-23T05:53:54.959Z,93.80
2019-05-23T05:57:59.914Z,93.30
2019-05-23T06:02:08.376Z,93.90
2019-05-23T06:06:24.309Z,93.70
2019-05-23T06:10:29.985Z,93.70
2019-05-23T06:14:35.473Z,94.10
2019-05-23T06:18:40.925Z,93.70
2019-05-23T06:22:46.404Z,94.10
2019-05-23T06:26:52.453Z,94.60
2019-05-23T06:30:58.253Z,93.80
2019-05-23T06:35:03.754Z,93.40
2019-05-23T06:39:10.654Z,93.40
2019-05-23T06:43:16.134Z,92.80
2019-05-23T06:47:21.355Z,92.60
2019-05-23T06:51:26.432Z,93.00
2019-05-23T06:55:31.324Z,93.00
2019-05-23T06:59:36.531Z,93.40
2019-05-23T07:03:43.587Z,93.20
2019-05-23T07:07:48.819Z,92.30
2019-05-23T07:11:56.687Z,92.80
2019-05-23T07:16:01.595Z,92.70
2019-05-23T07:20:07.504Z,91.60
2019-05-23T07:24:12.703Z,91.70
2019-05-23T07:28:17.607Z,90.20
2019-05-23T07:32:22.496Z,88.50
2019-05-23T07:36:28.548Z,90.00
2019-05-23T07:40:33.728Z,88.50
2019-05-23T07:44:47.899Z,88.40
2019-05-23T07:48:46.817Z,86.90
2019-05-23T07:52:53.184Z,79.50
2019-05-23T07:56:58.761Z,81.90
2019-05-23T08:01:05.327Z,80.00
2019-05-23T08:05:12.772Z,75.10
2019-05-23T08:09:18.052Z,76.40
2019-05-23T08:13:23.256Z,68.40
2019-05-23T08:17:28.632Z,71.50
2019-05-23T08:21:33.467Z,75.00
2019-05-23T08:25:38.361Z,72.40
2019-05-23T08:29:43.625Z,71.70
2019-05-23T08:33:49.204Z,72.40
2019-05-23T08:37:55.881Z,71.60
2019-05-23T08:42:00.784Z,72.10
2019-05-23T08:46:06.215Z,74.40
2019-05-23T08:50:12.610Z,72.40
2019-05-23T08:54:17.689Z,72.40
2019-05-23T08:58:22.607Z,68.80
2019-05-23T09:02:28.656Z,67.70
2019-05-23T09:06:33.966Z,68.80
2019-05-23T09:10:39.537Z,66.90
2019-05-23T09:14:44.913Z,68.40
2019-05-23T09:18:49.743Z,69.40
2019-05-23T09:22:54.636Z,69.00
2019-05-23T09:26:59.793Z,69.60
2019-05-23T09:31:04.792Z,68.20
2019-05-23T09:35:21.137Z,70.80
2019-05-23T09:39:20.676Z,69.50
2019-05-23T09:43:25.944Z,68.40
2019-05-23T09:47:30.856Z,68.80
2019-05-23T09:51:35.697Z,66.60
2019-05-23T09:55:40.595Z,68.70
2019-05-23T09:59:45.520Z,69.40
2019-05-23T10:03:50.444Z,67.10
2019-05-23T10:07:55.245Z,69.50
2019-05-23T10:12:00.155Z,69.60
2019-05-23T10:16:10.233Z,69.60
2019-05-23T10:20:16.323Z,69.40
2019-05-23T10:24:21.220Z,70.20
2019-05-23T10:28:26.132Z,68.10
2019-05-23T10:32:31.680Z,69.40
2019-05-23T10:36:36.585Z,66.80
2019-05-23T10:40:42.190Z,62.30
2019-05-23T10:44:48.155Z,62.10
2019-05-23T10:48:53.367Z,63.80
2019-05-23T10:52:58.465Z,65.70
2019-05-23T10:57:03.459Z,67.30
2019-05-23T11:01:09.256Z,65.40
2019-05-23T11:05:14.595Z,62.70
2019-05-23T11:09:36.206Z,67.30
2019-05-23T11:13:26.765Z,62.60
2019-05-23T11:17:31.908Z,61.80
2019-05-23T11:21:36.748Z,60.40
2019-05-23T11:25:42.626Z,61.70
2019-05-23T11:29:47.518Z,63.90
2019-05-23T11:33:52.413Z,63.20
2019-05-23T11:37:58.479Z,57.50
2019-05-23T11:42:03.685Z,58.30
2019-05-23T11:46:15.398Z,62.50
2019-05-23T11:50:20.377Z,59.70
2019-05-23T11:54:25.344Z,59.00
2019-05-23T11:58:32.516Z,57.80
2019-05-23T12:02:40.901Z,56.90
2019-05-23T12:06:58.852Z,56.90
2019-05-23T12:11:04.269Z,56.00
2019-05-23T12:15:14.505Z,56.20
2019-05-23T12:19:20.377Z,55.20
2019-05-23T12:23:25.455Z,53.30
2019-05-23T12:27:30.316Z,54.40
2019-05-23T12:31:35.197Z,53.20
2019-05-23T12:35:40.102Z,53.50
2019-05-23T12:39:44.993Z,52.10
2019-05-23T12:43:49.884Z,49.30
2019-05-23T12:48:05.369Z,50.00
2019-05-23T12:52:12.525Z,48.10
2019-05-23T12:56:17.378Z,48.70
2019-05-23T13:00:41.705Z,47.40
2019-05-23T13:04:48.196Z,48.40
2019-05-23T13:08:53.170Z,47.40
2019-05-23T13:12:58.373Z,44.40
2019-05-23T13:17:03.784Z,42.00
2019-05-23T13:21:08.901Z,43.30
2019-05-23T13:25:15.521Z,40.60
2019-05-23T13:29:24.095Z,41.30
2019-05-23T13:33:27.954Z,42.10
2019-05-23T13:37:33.509Z,40.70
2019-05-23T13:41:38.912Z,42.20
2019-05-23T13:45:43.808Z,40.80
2019-05-23T13:49:48.926Z,38.60
2019-05-23T13:53:53.840Z,39.10
2019-05-23T13:57:58.721Z,36.60
2019-05-23T14:02:03.628Z,35.30
2019-05-23T14:06:09.494Z,35.90
2019-05-23T14:10:15.467Z,35.50
2019-05-23T14:14:20.377Z,35.00
2019-05-23T14:18:27.027Z,33.60
2019-05-23T14:22:33.560Z,33.10
2019-05-23T14:26:45.039Z,32.80
2019-05-23T14:31:01.249Z,33.50
2019-05-23T14:35:06.800Z,34.40
2019-05-23T14:39:22.142Z,32.80
2019-05-23T14:43:28.024Z,32.20
2019-05-23T14:47:47.061Z,32.20
2019-05-23T14:52:04.988Z,32.30
2019-05-23T14:56:09.873Z,33.30
2019-05-23T15:00:15.535Z,32.70
2019-05-23T15:04:20.799Z,33.20
2019-05-23T15:08:25.762Z,32.40
2019-05-23T15:12:31.341Z,30.70
2019-05-23T15:16:36.338Z,29.70
2019-05-23T15:20:41.242Z,28.80
2019-05-23T15:24:46.216Z,29.20
2019-05-23T15:28:51.259Z,28.70
2019-05-23T15:32:56.393Z,28.30
2019-05-23T15:37:01.511Z,28.80
2019-05-23T15:41:06.497Z,29.20
2019-05-23T15:45:11.807Z,27.00
2019-05-23T15:49:17.131Z,26.20
2019-05-23T15:53:32.439Z,25.60
2019-05-23T15:57:53.520Z,24.60
2019-05-23T16:02:09.712Z,23.40
2019-05-23T16:06:17.933Z,23.70
2019-05-23T16:10:24.608Z,24.00
2019-05-23T16:14:30.396Z,23.10
2019-05-23T16:18:35.683Z,22.90
2019-05-23T16:22:40.690Z,22.10
2019-05-23T16:26:45.899Z,21.90
2019-05-23T16:30:51.261Z,22.00
2019-05-23T16:34:56.165Z,21.20
2019-05-23T16:39:01.621Z,21.40
2019-05-23T16:43:08.861Z,21.00
2019-05-23T16:47:13.783Z,21.10
2019-05-23T16:51:18.782Z,21.40
2019-05-23T16:55:32.371Z,22.60
2019-05-23T16:59:42.053Z,23.80
2019-05-23T17:04:08.793Z,24.60
2019-05-23T17:08:39.973Z,25.90
2019-05-23T17:12:56.507Z,26.90
2019-05-23T17:17:14.493Z,26.80
2019-05-23T17:21:36.233Z,27.00
2019-05-23T17:25:59.009Z,28.20
2019-05-23T17:30:13.289Z,29.60
2019-05-23T17:34:18.709Z,29.50
2019-05-23T17:38:24.540Z,30.50
2019-05-23T17:42:29.439Z,30.50
2019-05-23T17:46:34.423Z,30.40
2019-05-23T17:50:39.316Z,31.50
2019-05-23T17:54:44.787Z,32.20
2019-05-23T17:58:50.542Z,33.00
2019-05-23T18:02:55.809Z,33.50
2019-05-23T18:07:01.237Z,34.60
2019-05-23T18:11:06.965Z,35.60
2019-05-23T18:15:13.578Z,37.30
2019-05-23T18:19:19.703Z,38.30
2019-05-23T18:23:25.471Z,39.30
2019-05-23T18:27:32.105Z,38.40
2019-05-23T18:31:39.016Z,38.70
2019-05-23T18:35:43.913Z,40.80
2019-05-23T18:39:50.023Z,41.90
2019-05-23T18:43:55.522Z,43.00
2019-05-23T18:48:01.219Z,43.30
2019-05-23T18:52:06.682Z,42.70
2019-05-23T18:56:11.568Z,43.20
2019-05-23T19:00:17.364Z,43.70
2019-05-23T19:04:22.219Z,44.10
2019-05-23T19:08:27.153Z,44.20
2019-05-23T19:12:32.955Z,45.50
2019-05-23T19:16:38.297Z,45.80
2019-05-23T19:20:43.272Z,46.50
2019-05-23T19:24:48.199Z,47.60
2019-05-23T19:28:53.114Z,47.70
2019-05-23T19:32:58.010Z,47.90
2019-05-23T19:37:03.649Z,48.40
2019-05-23T19:41:10.916Z,49.00
2019-05-23T19:45:15.830Z,49.30
2019-05-23T19:49:20.943Z,49.60
2019-05-23T19:53:25.888Z,50.40
2019-05-23T19:57:32.126Z,50.90
2019-05-23T20:01:53.836Z,51.00
2019-05-23T20:05:59.725Z,51.90
2019-05-23T20:10:04.977Z,52.20
2019-05-23T20:14:10.061Z,52.40
2019-05-23T20:18:15.948Z,52.90
2019-05-23T20:22:20.845Z,52.50
2019-05-23T20:26:25.795Z,53.20
2019-05-23T20:30:59.216Z,54.00
2019-05-23T20:35:05.027Z,54.50
2019-05-23T20:39:09.968Z,54.70
2019-05-23T20:43:14.945Z,54.80
2019-05-23T20:47:19.878Z,55.50
2019-05-23T20:51:25.156Z,55.60
2019-05-23T20:55:30.072Z,56.00
2019-05-23T20:59:35.024Z,56.40
2019-05-23T21:03:40.609Z,56.90
2019-05-23T21:07:45.509Z,57.40
2019-05-23T21:11:50.495Z,57.70
2019-05-23T21:15:55.433Z,58.70
2019-05-23T21:20:00.340Z,59.70
2019-05-23T21:24:05.686Z,60.20
2019-05-23T21:28:10.741Z,60.10
2019-05-23T21:32:15.668Z,61.30
2019-05-23T21:36:20.576Z,62.80
2019-05-23T21:40:42.457Z,62.90
2019-05-23T21:44:47.301Z,63.90
2019-05-23T21:48:52.276Z,63.50
2019-05-23T21:52:57.186Z,66.20
2019-05-23T21:57:02.020Z,67.80
2019-05-23T22:01:39.283Z,68.10
2019-05-23T22:05:44.715Z,69.00
2019-05-23T22:09:49.533Z,69.10
2019-05-23T22:13:54.360Z,69.50
2019-05-23T22:17:59.661Z,70.40
2019-05-23T22:22:05.376Z,70.50
2019-05-23T22:26:10.297Z,71.40
2019-05-23T22:30:16.045Z,71.20
2019-05-23T22:34:39.278Z,71.40
2019-05-23T22:38:44.444Z,71.20
2019-05-23T22:42:49.318Z,71.20
2019-05-23T22:46:54.334Z,71.30
2019-05-23T22:50:59.588Z,71.10
2019-05-23T22:55:04.622Z,71.70
2019-05-23T22:59:09.888Z,71.50
2019-05-23T23:03:14.784Z,73.90
2019-05-23T23:07:21.016Z,75.60
2019-05-23T23:11:25.908Z,75.40
2019-05-23T23:15:32.839Z,75.50
2019-05-23T23:19:37.732Z,75.80
2019-05-23T23:23:42.649Z,75.70
2019-05-23T23:27:47.468Z,75.80
2019-05-23T23:31:52.359Z,76.10
2019-05-23T23:35:57.236Z,76.20
2019-05-23T23:40:02.340Z,76.00
2019-05-23T23:44:10.408Z,76.00
2019-05-23T23:48:33.144Z,75.80
2019-05-23T23:52:55.716Z,76.10
2019-05-23T23:57:18.234Z,76.60
